Time;durP1;ratioP1;P1;durP2;ratioP2;P2;SDS_P1;SDS_P2;PMS_P1;PMS_P2;Temp;Humidity;BMP_temperature;BMP_pressure;BME280_temperature;BME280_humidity;BME280_pressure;Samples;Min_cycle;Max_cycle;Signal;HPM_P1;HPM_P2
2024/02/25 00:01:48;;;;;;;8.32;4.72;;;3.20;1.00;;;;;;7370752;19;20021;-69
2024/02/25 00:04:18;;;;;;;8.50;4.47;;;3.30;1.00;;;;;;7369785;19;20018;-69
2024/02/25 00:06:51;;;;;;;7.05;4.82;;;3.20;1.00;;;;;;7370275;19;20510;-70
2024/02/25 00:09:21;;;;;;;8.88;5.13;;;3.20;1.00;;;;;;7371394;19;20007;-71
2024/02/25 00:11:51;;;;;;;8.68;4.75;;;3.20;1.00;;;;;;7370901;19;20014;-71
2024/02/25 00:14:28;;;;;;;6.22;4.40;;;3.10;1.00;;;;;;7370484;19;21077;-70
2024/02/25 00:16:58;;;;;;;7.30;5.38;;;3.10;1.00;;;;;;7370473;19;20017;-71
2024/02/25 00:19:29;;;;;;;9.15;5.13;;;3.10;1.00;;;;;;7372615;19;20089;-71
2024/02/25 00:22:02;;;;;;;8.85;5.45;;;3.00;1.00;;;;;;7370383;19;20022;-70
2024/02/25 00:24:32;;;;;;;10.80;5.57;;;3.10;1.00;;;;;;7368782;19;20018;-70
2024/02/25 00:27:02;;;;;;;7.65;5.75;;;3.00;1.00;;;;;;7372787;19;20014;-70
2024/02/25 00:29:32;;;;;;;10.40;5.55;;;3.00;1.00;;;;;;7371396;19;20494;-71
2024/02/25 00:32:02;;;;;;;8.95;5.60;;;3.20;1.00;;;;;;7369904;19;20026;-69
2024/02/25 00:34:32;;;;;;;8.57;5.55;;;3.10;1.00;;;;;;7368914;19;20006;-70
2024/02/25 00:37:05;;;;;;;8.50;5.68;;;3.00;1.00;;;;;;7371368;19;20380;-70
2024/02/25 00:39:35;;;;;;;10.25;5.50;;;3.00;1.00;;;;;;7371045;19;20070;-70
2024/02/25 00:42:06;;;;;;;10.57;5.70;;;3.00;1.00;;;;;;7370271;19;20026;-71
2024/02/25 00:44:38;;;;;;;9.18;5.72;;;2.90;1.00;;;;;;7369287;19;20010;-70
2024/02/25 00:47:08;;;;;;;9.52;5.38;;;2.90;1.00;;;;;;7370438;19;20040;-70
2024/02/25 00:49:38;;;;;;;9.20;5.80;;;2.90;1.00;;;;;;7369501;19;20010;-71
2024/02/25 00:52:11;;;;;;;7.45;5.20;;;2.90;1.00;;;;;;7368439;19;20046;-70
2024/02/25 00:54:44;;;;;;;7.55;5.28;;;2.90;1.00;;;;;;7368477;19;20017;-71
2024/02/25 00:57:14;;;;;;;9.60;5.43;;;3.00;1.00;;;;;;7369858;19;20037;-71
2024/02/25 00:59:44;;;;;;;7.95;5.47;;;3.00;1.00;;;;;;7368730;19;20474;-70
2024/02/25 01:02:14;;;;;;;7.05;5.28;;;3.00;1.00;;;;;;7369788;19;20082;-72
2024/02/25 01:04:44;;;;;;;6.45;5.20;;;2.90;1.00;;;;;;7368345;19;20018;-70
2024/02/25 01:07:18;;;;;;;8.10;5.57;;;2.80;1.00;;;;;;7369671;19;20014;-73
2024/02/25 01:09:49;;;;;;;7.85;5.47;;;2.70;1.00;;;;;;7369026;19;20010;-70
2024/02/25 01:12:19;;;;;;;8.52;5.55;;;2.70;1.00;;;;;;7368556;19;20095;-71
2024/02/25 01:14:49;;;;;;;8.60;5.43;;;2.60;1.00;;;;;;7369119;19;20006;-70
2024/02/25 01:17:19;;;;;;;8.60;5.50;;;2.60;1.00;;;;;;7369650;19;20014;-70
2024/02/25 01:19:49;;;;;;;11.68;6.40;;;2.60;1.00;;;;;;7370386;19;20011;-71
2024/02/25 01:22:22;;;;;;;9.68;5.65;;;2.70;1.00;;;;;;7370045;19;20048;-70
2024/02/25 01:24:52;;;;;;;8.02;5.55;;;2.70;1.00;;;;;;7368246;19;20014;-69
2024/02/25 01:27:22;;;;;;;8.10;5.88;;;2.70;1.00;;;;;;7368795;19;20018;-69
2024/02/25 01:29:52;;;;;;;11.38;6.47;;;2.70;1.00;;;;;;7369245;19;20014;-69
2024/02/25 01:32:22;;;;;;;10.07;5.43;;;2.70;1.00;;;;;;7370268;19;20015;-69
2024/02/25 01:34:50;;;;;;;11.52;5.75;;;2.70;1.00;;;;;;7369996;19;20010;-69
2024/02/25 01:37:22;;;;;;;12.40;5.53;;;2.60;1.00;;;;;;7371593;19;20019;-71
2024/02/25 01:39:52;;;;;;;8.05;5.60;;;2.50;1.00;;;;;;7370702;19;20015;-69
2024/02/25 01:42:23;;;;;;;7.90;5.97;;;2.60;1.00;;;;;;7369925;19;20647;-68
2024/02/25 01:44:59;;;;;;;9.35;6.28;;;2.50;1.00;;;;;;7367278;19;20014;-69
2024/02/25 01:47:30;;;;;;;8.98;6.40;;;2.50;1.00;;;;;;7371028;19;20095;-69
2024/02/25 01:50:01;;;;;;;10.13;6.15;;;2.50;1.00;;;;;;7369803;19;20016;-69
2024/02/25 01:52:34;;;;;;;9.60;6.07;;;2.60;1.00;;;;;;7370415;19;20049;-69
2024/02/25 01:55:04;;;;;;;7.93;6.05;;;2.60;1.00;;;;;;7368326;19;20109;-69
2024/02/25 01:57:34;;;;;;;8.35;5.70;;;2.50;1.00;;;;;;7370920;19;21275;-69
2024/02/25 02:00:05;;;;;;;8.18;6.00;;;2.60;1.00;;;;;;7370354;19;20014;-69
2024/02/25 02:02:35;;;;;;;9.93;6.10;;;2.70;1.00;;;;;;7368408;19;20007;-68
2024/02/25 02:05:05;;;;;;;8.90;6.30;;;2.70;1.00;;;;;;7369118;19;20109;-69
2024/02/25 02:07:38;;;;;;;8.30;5.80;;;2.60;1.00;;;;;;7370588;19;20025;-69
2024/02/25 02:10:11;;;;;;;8.43;5.97;;;2.50;1.00;;;;;;7370210;19;20590;-69
2024/02/25 02:12:44;;;;;;;8.77;6.47;;;2.40;1.00;;;;;;7364659;19;20006;-70
2024/02/25 02:15:15;;;;;;;7.63;5.60;;;2.40;1.00;;;;;;7369182;19;20033;-70
2024/02/25 02:17:48;;;;;;;9.70;6.10;;;2.50;1.00;;;;;;7369476;19;20043;-69
2024/02/25 02:20:20;;;;;;;7.63;5.47;;;2.50;1.00;;;;;;7369425;19;20036;-70
2024/02/25 02:22:52;;;;;;;7.53;5.43;;;2.70;1.00;;;;;;7368399;19;20250;-71
2024/02/25 02:25:23;;;;;;;11.18;6.18;;;2.50;1.00;;;;;;7367605;19;20018;-70
2024/02/25 02:27:55;;;;;;;8.55;6.28;;;2.50;1.00;;;;;;7368251;19;20010;-70
2024/02/25 02:30:25;;;;;;;7.35;5.25;;;2.50;1.00;;;;;;7368803;19;20015;-70
2024/02/25 02:32:55;;;;;;;8.38;5.65;;;2.50;1.00;;;;;;7367786;19;20030;-70
2024/02/25 02:35:26;;;;;;;8.15;5.97;;;2.50;1.00;;;;;;7366218;19;20023;-70
2024/02/25 02:37:58;;;;;;;8.02;5.53;;;2.50;1.00;;;;;;7367525;19;20035;-70
2024/02/25 02:40:28;;;;;;;8.15;5.53;;;2.50;1.00;;;;;;7367838;19;20089;-70
2024/02/25 02:42:58;;;;;;;7.85;5.18;;;2.50;1.00;;;;;;7368139;19;20017;-70
2024/02/25 02:45:28;;;;;;;8.13;5.13;;;2.50;1.00;;;;;;7366879;19;20349;-70
2024/02/25 02:47:58;;;;;;;7.80;5.00;;;2.50;1.00;;;;;;7365893;19;20011;-70
2024/02/25 02:50:29;;;;;;;8.48;5.18;;;2.50;1.00;;;;;;7367583;19;20019;-71
2024/02/25 02:53:02;;;;;;;7.97;5.30;;;2.40;1.00;;;;;;7369625;19;20019;-70
2024/02/25 02:55:32;;;;;;;7.35;4.85;;;2.40;1.00;;;;;;7367077;19;20011;-70
2024/02/25 02:58:02;;;;;;;7.65;5.88;;;2.40;1.00;;;;;;7369311;19;20025;-71
2024/02/25 03:00:32;;;;;;;6.88;5.03;;;2.40;1.00;;;;;;7368569;19;20036;-70
2024/02/25 03:03:02;;;;;;;6.80;5.15;;;2.40;1.00;;;;;;7366827;19;20014;-70
2024/02/25 03:05:32;;;;;;;8.27;6.07;;;2.40;1.00;;;;;;7365897;19;20007;-71
2024/02/25 03:08:05;;;;;;;8.68;5.20;;;2.40;1.00;;;;;;7366002;19;20046;-70
2024/02/25 03:10:36;;;;;;;8.68;5.53;;;2.30;1.00;;;;;;7366823;19;20382;-70
2024/02/25 03:13:06;;;;;;;7.78;5.47;;;2.30;1.00;;;;;;7367172;19;20014;-70
2024/02/25 03:15:36;;;;;;;13.18;5.30;;;2.30;1.00;;;;;;7371120;19;20366;-70
2024/02/25 03:18:06;;;;;;;7.55;5.30;;;2.30;1.00;;;;;;7374538;19;20018;-71
2024/02/25 03:20:37;;;;;;;6.88;4.68;;;2.30;1.00;;;;;;7374283;19;20007;-70
2024/02/25 03:23:13;;;;;;;6.95;5.22;;;2.30;1.00;;;;;;7372237;19;20030;-70
2024/02/25 03:25:45;;;;;;;6.03;4.85;;;2.40;1.00;;;;;;7373092;19;20014;-70
2024/02/25 03:28:15;;;;;;;8.35;5.13;;;2.40;1.00;;;;;;7374642;19;20835;-70
2024/02/25 03:30:45;;;;;;;6.97;4.68;;;2.40;1.00;;;;;;7373791;19;20464;-69
2024/02/25 03:33:16;;;;;;;6.93;4.82;;;2.30;1.00;;;;;;7371089;19;20375;-69
2024/02/25 03:35:46;;;;;;;6.93;4.80;;;2.30;1.00;;;;;;7371774;19;20022;-69
2024/02/25 03:38:19;;;;;;;6.13;4.30;;;2.30;1.00;;;;;;7369636;19;20460;-70
2024/02/25 03:40:49;;;;;;;7.88;4.97;;;2.30;1.00;;;;;;7371903;19;20018;-70
2024/02/25 03:43:19;;;;;;;8.68;4.57;;;2.30;1.00;;;;;;7368140;19;20364;-69
2024/02/25 03:45:49;;;;;;;6.63;4.35;;;2.20;1.00;;;;;;7370767;19;20014;-70
2024/02/25 03:48:19;;;;;;;7.00;4.65;;;2.20;1.00;;;;;;7370478;19;20043;-70
2024/02/25 03:50:49;;;;;;;5.90;4.85;;;2.20;1.00;;;;;;7369745;19;20373;-70
2024/02/25 03:53:22;;;;;;;7.05;4.93;;;2.20;1.00;;;;;;7372227;19;20078;-69
2024/02/25 03:55:52;;;;;;;6.93;4.78;;;2.40;1.00;;;;;;7369628;19;20635;-70
2024/02/25 03:58:22;;;;;;;5.68;4.50;;;2.40;1.00;;;;;;7372712;19;20018;-70
2024/02/25 04:00:53;;;;;;;8.77;4.75;;;2.50;1.00;;;;;;7375252;19;20014;-70
2024/02/25 04:03:23;;;;;;;7.10;4.68;;;2.40;1.00;;;;;;7372267;19;20014;-70
2024/02/25 04:05:53;;;;;;;7.25;4.22;;;2.40;1.00;;;;;;7371652;19;20556;-70
2024/02/25 04:08:26;;;;;;;7.15;4.63;;;2.40;1.00;;;;;;7371551;19;20040;-70
2024/02/25 04:10:56;;;;;;;5.13;4.30;;;2.50;1.00;;;;;;7372183;19;20010;-69
2024/02/25 04:13:26;;;;;;;9.05;4.10;;;2.50;1.00;;;;;;7370960;19;20027;-70
2024/02/25 04:15:56;;;;;;;5.78;4.30;;;2.50;1.00;;;;;;7369963;19;20015;-69
2024/02/25 04:18:26;;;;;;;7.00;4.50;;;2.40;1.00;;;;;;7369937;19;20002;-70
2024/02/25 04:20:56;;;;;;;8.70;4.38;;;2.40;1.00;;;;;;7371155;19;20010;-70
2024/02/25 04:23:29;;;;;;;5.80;4.32;;;2.40;1.00;;;;;;7369106;19;20019;-70
2024/02/25 04:25:59;;;;;;;7.05;4.10;;;2.40;1.00;;;;;;7367347;19;20018;-69
2024/02/25 04:28:30;;;;;;;5.13;3.92;;;2.40;1.00;;;;;;7370784;19;20093;-69
2024/02/25 04:31:00;;;;;;;6.47;4.07;;;2.40;1.00;;;;;;7370553;19;20038;-70
2024/02/25 04:33:30;;;;;;;7.07;4.05;;;2.40;1.00;;;;;;7369978;19;20014;-70
2024/02/25 04:36:00;;;;;;;7.15;4.15;;;2.40;1.00;;;;;;7370993;19;20062;-72
2024/02/25 04:38:33;;;;;;;6.68;4.15;;;2.30;1.00;;;;;;7371472;19;20003;-71
2024/02/25 04:41:03;;;;;;;6.85;4.32;;;2.30;1.00;;;;;;7370929;19;20006;-70
2024/02/25 04:43:33;;;;;;;7.80;4.10;;;2.20;1.00;;;;;;7370151;19;20902;-69
2024/02/25 04:46:03;;;;;;;7.10;3.90;;;2.20;1.00;;;;;;7368751;19;20040;-70
2024/02/25 04:48:33;;;;;;;8.18;4.43;;;2.10;1.00;;;;;;7369592;19;20463;-69
2024/02/25 04:51:04;;;;;;;7.63;4.75;;;2.10;1.00;;;;;;7370195;19;20019;-69
2024/02/25 04:53:36;;;;;;;5.63;4.20;;;2.30;1.00;;;;;;7368716;19;20013;-70
2024/02/25 04:56:07;;;;;;;6.03;4.47;;;2.40;1.00;;;;;;7368965;19;20018;-70
2024/02/25 04:58:37;;;;;;;6.65;3.90;;;2.40;1.00;;;;;;7369800;19;20384;-70
2024/02/25 05:01:07;;;;;;;5.15;4.15;;;2.40;1.00;;;;;;7371250;19;20014;-70
2024/02/25 05:03:37;;;;;;;6.65;4.32;;;2.40;1.00;;;;;;7369295;19;20056;-70
2024/02/25 05:06:07;;;;;;;5.70;4.15;;;2.30;1.00;;;;;;7369445;19;20014;-70
2024/02/25 05:08:40;;;;;;;6.97;4.00;;;2.30;1.00;;;;;;7370789;19;20022;-70
2024/02/25 05:11:10;;;;;;;5.70;4.32;;;2.40;1.00;;;;;;7371735;19;20015;-70
2024/02/25 05:13:40;;;;;;;8.05;4.20;;;2.30;1.00;;;;;;7370927;19;20021;-70
2024/02/25 05:16:12;;;;;;;5.28;4.05;;;2.30;1.00;;;;;;7370197;19;20028;-69
2024/02/25 05:18:42;;;;;;;5.63;3.85;;;2.40;1.00;;;;;;7370376;19;20540;-70
2024/02/25 05:21:12;;;;;;;4.53;3.75;;;2.40;1.00;;;;;;7370528;19;20014;-69
2024/02/25 05:23:45;;;;;;;5.47;3.58;;;2.50;1.00;;;;;;7371263;19;20030;-69
2024/02/25 05:26:17;;;;;;;5.20;3.65;;;2.40;1.00;;;;;;7369921;19;20014;-70
2024/02/25 05:28:47;;;;;;;4.93;3.60;;;2.50;1.00;;;;;;7370146;19;20014;-70
2024/02/25 05:31:18;;;;;;;6.35;4.28;;;2.60;1.00;;;;;;7370564;19;20006;-69
2024/02/25 05:33:48;;;;;;;5.65;3.97;;;2.50;1.00;;;;;;7368812;19;20014;-68
2024/02/25 05:36:22;;;;;;;7.60;3.90;;;2.50;1.00;;;;;;7369148;19;20010;-69
2024/02/25 05:38:55;;;;;;;5.95;4.15;;;2.60;1.00;;;;;;7368847;19;20015;-68
2024/02/25 05:41:25;;;;;;;5.85;3.90;;;2.60;1.00;;;;;;7368651;19;20457;-69
2024/02/25 05:43:55;;;;;;;4.57;3.80;;;2.60;1.00;;;;;;7369106;19;20518;-69
2024/02/25 05:46:25;;;;;;;6.13;3.83;;;2.50;1.00;;;;;;7370203;19;20002;-69
2024/02/25 05:48:55;;;;;;;5.20;3.88;;;2.50;1.00;;;;;;7371784;19;20010;-70
2024/02/25 05:51:25;;;;;;;5.45;3.88;;;2.50;1.00;;;;;;7370748;19;20014;-69
2024/02/25 05:53:58;;;;;;;6.60;3.65;;;2.40;1.00;;;;;;7369662;19;20024;-69
2024/02/25 05:56:28;;;;;;;5.28;3.80;;;2.30;1.00;;;;;;7370474;19;20021;-69
2024/02/25 05:58:58;;;;;;;5.05;3.33;;;2.40;1.00;;;;;;7371186;19;20011;-69
2024/02/25 06:01:33;;;;;;;4.88;3.67;;;2.40;1.00;;;;;;7371351;19;20072;-70
2024/02/25 06:04:05;;;;;;;6.38;4.03;;;2.40;1.00;;;;;;7369820;19;20003;-69
2024/02/25 06:06:35;;;;;;;7.10;3.97;;;2.30;1.00;;;;;;7370105;19;20026;-69
2024/02/25 06:09:10;;;;;;;5.90;4.13;;;2.30;1.00;;;;;;7372129;19;20007;-69
2024/02/25 06:11:40;;;;;;;6.95;5.25;;;2.30;1.00;;;;;;7361028;19;20070;-69
2024/02/25 06:14:11;;;;;;;5.97;4.68;;;2.30;1.00;;;;;;7369038;19;20014;-69
2024/02/25 06:16:43;;;;;;;7.22;4.63;;;2.30;1.00;;;;;;7369056;19;20506;-69
2024/02/25 06:19:13;;;;;;;5.95;3.95;;;2.30;1.00;;;;;;7369525;19;20002;-69
2024/02/25 06:21:45;;;;;;;6.20;4.10;;;2.30;1.00;;;;;;7370050;19;20006;-69
2024/02/25 06:24:18;;;;;;;4.80;3.50;;;2.30;1.00;;;;;;7368201;19;20094;-69
2024/02/25 06:26:48;;;;;;;4.93;3.67;;;2.40;1.00;;;;;;7367673;19;20046;-70
2024/02/25 06:29:19;;;;;;;5.78;3.97;;;2.50;1.00;;;;;;7370596;19;20015;-69
2024/02/25 06:31:50;;;;;;;5.68;3.67;;;2.60;1.00;;;;;;7368643;19;20031;-70
2024/02/25 06:34:20;;;;;;;8.88;4.05;;;2.70;1.00;;;;;;7368039;19;20010;-69
2024/02/25 06:36:50;;;;;;;6.35;4.28;;;2.90;1.00;;;;;;7369187;19;20466;-70
2024/02/25 06:39:22;;;;;;;5.93;4.20;;;3.00;1.00;;;;;;7368309;19;20418;-70
2024/02/25 06:41:53;;;;;;;5.32;3.78;;;3.10;1.00;;;;;;7369601;19;20082;-69
2024/02/25 06:44:23;;;;;;;5.95;3.92;;;3.30;1.00;;;;;;7367629;19;20014;-69
2024/02/25 06:46:56;;;;;;;4.65;3.60;;;3.30;1.00;;;;;;7369191;19;20915;-70
2024/02/25 06:49:27;;;;;;;3.95;3.47;;;3.40;1.00;;;;;;7366934;19;20022;-70
2024/02/25 06:51:58;;;;;;;7.80;4.00;;;3.50;1.00;;;;;;7369298;19;20543;-70
2024/02/25 06:54:31;;;;;;;5.00;3.47;;;3.70;1.00;;;;;;7368323;19;20014;-70
2024/02/25 06:57:02;;;;;;;4.77;2.83;;;3.80;1.00;;;;;;7369014;19;20023;-70
2024/02/25 06:59:32;;;;;;;4.28;3.08;;;3.90;1.00;;;;;;7368376;19;20239;-70
2024/02/25 07:02:02;;;;;;;5.05;3.30;;;4.00;1.00;;;;;;7366480;19;20021;-69
2024/02/25 07:04:32;;;;;;;5.13;3.42;;;3.90;1.00;;;;;;7366882;19;20018;-70
2024/02/25 07:07:04;;;;;;;3.58;3.00;;;4.00;1.00;;;;;;7366897;19;20022;-70
2024/02/25 07:09:36;;;;;;;5.03;3.03;;;4.00;1.00;;;;;;7367892;19;20043;-70
2024/02/25 07:12:07;;;;;;;4.63;2.90;;;4.10;1.00;;;;;;7367730;19;20479;-70
2024/02/25 07:14:38;;;;;;;5.68;3.00;;;4.10;1.00;;;;;;7366230;19;20097;-70
2024/02/25 07:17:08;;;;;;;3.80;2.67;;;4.20;1.00;;;;;;7367025;19;20071;-70
2024/02/25 07:19:38;;;;;;;2.95;2.65;;;4.30;1.00;;;;;;7367321;19;20093;-69
2024/02/25 07:22:08;;;;;;;3.08;2.78;;;4.30;1.00;;;;;;7367110;19;20626;-70
2024/02/25 07:24:41;;;;;;;3.85;2.70;;;4.30;1.00;;;;;;7365184;19;20088;-71
2024/02/25 07:27:14;;;;;;;5.00;3.30;;;4.40;1.00;;;;;;7366114;19;20500;-70
2024/02/25 07:29:46;;;;;;;3.35;2.83;;;4.40;1.00;;;;;;7366458;19;20014;-70
2024/02/25 07:32:16;;;;;;;4.47;3.30;;;4.40;1.00;;;;;;7365553;19;20085;-70
2024/02/25 07:34:46;;;;;;;5.20;2.78;;;4.40;1.00;;;;;;7364814;19;20007;-71
2024/02/25 07:37:16;;;;;;;7.28;3.45;;;4.40;1.00;;;;;;7366030;19;20020;-71
2024/02/25 07:39:49;;;;;;;3.38;3.05;;;4.50;1.00;;;;;;7366319;19;20019;-70
2024/02/25 07:42:19;;;;;;;4.43;2.80;;;4.50;1.00;;;;;;7368039;19;20470;-71
2024/02/25 07:44:49;;;;;;;3.95;2.70;;;4.60;1.00;;;;;;7362540;19;20025;-71
2024/02/25 07:47:19;;;;;;;4.00;2.28;;;4.60;1.00;;;;;;7366409;19;20018;-70
2024/02/25 07:49:49;;;;;;;2.92;2.40;;;4.70;1.00;;;;;;7367660;19;20017;-71
2024/02/25 07:52:19;;;;;;;3.42;2.40;;;4.80;1.00;;;;;;7365173;19;20017;-70
2024/02/25 07:54:52;;;;;;;3.60;2.28;;;4.80;1.00;;;;;;7365344;19;20043;-71
2024/02/25 07:57:22;;;;;;;3.42;2.15;;;4.90;1.00;;;;;;7363312;19;20007;-71
2024/02/25 07:59:52;;;;;;;2.83;2.30;;;5.00;1.00;;;;;;7368857;19;20007;-71
2024/02/25 08:02:22;;;;;;;4.53;2.25;;;5.00;1.00;;;;;;7371872;19;20009;-70
2024/02/25 08:04:52;;;;;;;3.83;2.30;;;5.00;1.00;;;;;;7368122;19;20014;-71
2024/02/25 08:07:22;;;;;;;2.85;1.85;;;5.20;1.00;;;;;;7374536;19;20018;-71
2024/02/25 08:09:55;;;;;;;2.65;1.85;;;5.30;1.00;;;;;;7375399;19;20021;-70
2024/02/25 08:12:25;;;;;;;2.88;1.92;;;5.30;1.00;;;;;;7371856;19;20393;-71
2024/02/25 08:14:57;;;;;;;3.88;1.98;;;5.40;1.00;;;;;;7369898;19;20030;-71
2024/02/25 08:17:27;;;;;;;3.20;1.80;;;5.50;1.00;;;;;;7371019;19;20507;-71
2024/02/25 08:19:57;;;;;;;3.42;2.33;;;5.60;1.00;;;;;;7372920;19;20006;-71
2024/02/25 08:22:27;;;;;;;3.53;2.75;;;5.70;1.00;;;;;;7371817;19;20019;-71
2024/02/25 08:25:00;;;;;;;3.10;1.92;;;5.80;1.00;;;;;;7371194;19;20589;-71
2024/02/25 08:27:32;;;;;;;5.28;2.03;;;5.90;1.00;;;;;;7374367;19;20006;-70
2024/02/25 08:30:02;;;;;;;3.35;1.95;;;6.00;1.00;;;;;;7373534;19;20018;-71
2024/02/25 08:32:33;;;;;;;3.42;2.17;;;6.10;1.00;;;;;;7373133;19;20507;-71
2024/02/25 08:35:04;;;;;;;2.63;1.95;;;6.10;1.00;;;;;;7370737;19;20012;-71
2024/02/25 08:37:34;;;;;;;3.72;2.03;;;6.30;1.00;;;;;;7370393;19;20047;-71
2024/02/25 08:40:07;;;;;;;2.60;1.85;;;6.30;1.00;;;;;;7371168;19;20489;-71
2024/02/25 08:42:37;;;;;;;4.03;2.50;;;6.20;1.00;;;;;;7373722;19;20467;-71
2024/02/25 08:45:08;;;;;;;3.67;1.67;;;6.30;1.00;;;;;;7371376;19;20010;-71
2024/02/25 08:47:38;;;;;;;2.90;1.85;;;6.40;1.00;;;;;;7371567;19;20003;-71
2024/02/25 08:50:12;;;;;;;3.70;2.00;;;6.40;1.00;;;;;;7373531;19;20018;-70
2024/02/25 08:52:42;;;;;;;2.88;1.65;;;6.50;1.00;;;;;;7375230;19;20011;-71
2024/02/25 08:55:15;;;;;;;4.13;2.10;;;6.60;1.00;;;;;;7368610;19;20015;-71
2024/02/25 08:57:45;;;;;;;3.42;1.65;;;6.70;1.00;;;;;;7371578;19;20058;-73
2024/02/25 09:00:16;;;;;;;2.65;1.48;;;6.70;1.00;;;;;;7371837;19;20057;-71
2024/02/25 09:02:46;;;;;;;2.08;1.40;;;6.70;1.00;;;;;;7371710;19;20105;-70
2024/02/25 09:05:16;;;;;;;2.10;1.20;;;6.80;1.00;;;;;;7370836;19;20010;-71
2024/02/25 09:07:46;;;;;;;3.20;1.35;;;6.90;1.00;;;;;;7371587;19;20021;-71
2024/02/25 09:10:19;;;;;;;2.72;1.50;;;6.90;1.00;;;;;;7370720;19;20035;-71
2024/02/25 09:12:50;;;;;;;2.42;1.42;;;7.00;1.00;;;;;;7371394;19;20007;-71
2024/02/25 09:15:21;;;;;;;1.58;1.00;;;7.20;1.00;;;;;;7369667;19;20395;-72
2024/02/25 09:17:54;;;;;;;1.83;1.13;;;7.10;1.00;;;;;;7370130;19;20010;-71
2024/02/25 09:20:27;;;;;;;1.23;0.90;;;7.20;1.00;;;;;;7370812;19;20010;-72
2024/02/25 09:23:00;;;;;;;2.30;1.00;;;7.30;1.00;;;;;;7374176;19;20014;-71
2024/02/25 09:25:36;;;;;;;1.88;1.00;;;7.40;1.00;;;;;;7367242;19;20010;-71
2024/02/25 09:28:08;;;;;;;0.70;0.70;;;7.50;1.00;;;;;;7370101;19;20014;-71
2024/02/25 09:30:38;;;;;;;1.52;1.00;;;7.50;1.00;;;;;;7369097;19;20014;-71
2024/02/25 09:33:08;;;;;;;6.22;0.80;;;7.50;1.00;;;;;;7368790;19;20400;-71
2024/02/25 09:35:39;;;;;;;1.13;0.60;;;7.50;1.00;;;;;;7369545;19;20459;-71
2024/02/25 09:38:09;;;;;;;1.05;0.80;;;7.60;1.00;;;;;;7368595;19;20027;-71
2024/02/25 09:40:41;;;;;;;2.08;0.88;;;7.50;1.00;;;;;;7369164;19;20484;-70
2024/02/25 09:43:15;;;;;;;1.38;0.85;;;7.50;1.00;;;;;;7368628;19;20070;-70
2024/02/25 09:45:49;;;;;;;1.42;0.80;;;7.60;1.00;;;;;;7369507;19;20048;-70
2024/02/25 09:48:20;;;;;;;2.53;0.77;;;7.70;1.00;;;;;;7368722;19;21010;-71
2024/02/25 09:50:52;;;;;;;2.35;0.70;;;7.90;1.00;;;;;;7369885;19;20022;-70
2024/02/25 09:53:24;;;;;;;3.72;0.88;;;8.00;1.00;;;;;;7367695;19;20346;-71
2024/02/25 09:55:56;;;;;;;2.70;0.90;;;8.00;1.00;;;;;;7368791;19;20369;-70
2024/02/25 09:58:28;;;;;;;1.80;0.88;;;8.10;1.00;;;;;;7368017;19;20073;-70
2024/02/25 10:01:00;;;;;;;1.45;0.77;;;8.20;1.00;;;;;;7369910;19;20018;-71
2024/02/25 10:03:31;;;;;;;2.17;1.50;;;8.30;1.00;;;;;;7370248;19;20011;-71
2024/02/25 10:06:01;;;;;;;1.52;0.82;;;8.40;1.00;;;;;;7365864;19;20007;-72
2024/02/25 10:08:31;;;;;;;1.48;0.88;;;8.30;1.00;;;;;;7369405;19;20035;-71
2024/02/25 10:11:05;;;;;;;2.78;1.38;;;8.40;1.00;;;;;;7369441;19;20480;-70
2024/02/25 10:13:35;;;;;;;;;;;8.40;1.00;;;;;;7366176;19;20039;-70
2024/02/25 10:16:06;;;;;;;2.13;1.30;;;8.60;1.00;;;;;;7371732;19;20355;-70
2024/02/25 10:18:36;;;;;;;1.20;0.70;;;8.50;1.00;;;;;;7361557;19;20039;-70
2024/02/25 10:21:09;;;;;;;1.33;0.70;;;8.60;1.00;;;;;;7368102;19;20099;-70
2024/02/25 10:23:40;;;;;;;2.35;1.00;;;8.60;1.00;;;;;;7366363;19;20419;-70
2024/02/25 10:26:23;;;;;;;1.58;1.10;;;8.70;1.00;;;;;;7366089;19;20031;-71
2024/02/25 10:29:05;;;;;;;1.48;0.63;;;8.70;1.00;;;;;;7367938;19;20014;-71
2024/02/25 10:31:36;;;;;;;1.60;0.93;;;8.90;1.00;;;;;;7363364;19;20018;-71
2024/02/25 10:34:06;;;;;;;2.35;0.90;;;9.10;1.00;;;;;;7366457;19;20021;-70
2024/02/25 10:36:37;;;;;;;1.50;0.75;;;9.10;1.00;;;;;;7367354;19;20006;-72
2024/02/25 10:39:10;;;;;;;0.82;0.70;;;9.00;1.00;;;;;;7370105;19;20398;-70
2024/02/25 10:41:45;;;;;;;1.75;0.68;;;9.00;1.00;;;;;;7364631;19;20516;-70
2024/02/25 10:44:17;;;;;;;1.25;0.70;;;9.20;1.00;;;;;;7367008;19;20022;-72
2024/02/25 10:46:52;;;;;;;1.30;0.52;;;9.40;1.00;;;;;;7366318;19;20022;-71
2024/02/25 10:49:22;;;;;;;0.80;0.60;;;9.30;1.00;;;;;;7368756;19;20006;-70
2024/02/25 10:51:54;;;;;;;1.05;0.60;;;9.40;1.00;;;;;;7369052;19;20015;-71
2024/02/25 10:54:25;;;;;;;1.00;0.70;;;9.30;1.00;;;;;;7366954;19;20344;-72
2024/02/25 10:56:59;;;;;;;2.25;0.75;;;9.40;1.00;;;;;;7364576;19;20018;-73
2024/02/25 10:59:30;;;;;;;1.50;0.63;;;9.70;1.00;;;;;;7365744;19;20013;-70
2024/02/25 11:02:00;;;;;;;1.45;0.60;;;9.80;1.00;;;;;;7365541;19;20031;-71
2024/02/25 11:04:30;;;;;;;1.02;0.55;;;9.80;1.00;;;;;;7367082;19;20733;-71
2024/02/25 11:07:00;;;;;;;1.88;0.50;;;10.00;1.00;;;;;;7365724;19;20078;-71
2024/02/25 11:09:33;;;;;;;0.88;0.60;;;10.10;1.00;;;;;;7367201;19;20014;-71
2024/02/25 11:12:21;;;;;;;3.42;0.85;;;10.20;1.00;;;;;;7370160;19;20010;-71
2024/02/25 11:14:53;;;;;;;2.00;0.60;;;9.50;1.00;;;;;;7363323;19;20018;-71
2024/02/25 11:17:27;;;;;;;1.13;0.80;;;9.40;1.00;;;;;;7367373;19;20037;-71
2024/02/25 11:20:06;;;;;;;0.55;0.50;;;9.70;1.00;;;;;;7367468;19;20006;-71
2024/02/25 11:22:41;;;;;;;1.75;0.75;;;9.90;1.00;;;;;;7367299;19;20010;-71
2024/02/25 11:25:40;;;;;;;0.70;0.45;;;10.20;1.00;;;;;;7366850;19;20039;-71
2024/02/25 11:28:18;;;;;;;1.52;0.55;;;9.80;1.00;;;;;;6852686;19;2004129;-70
2024/02/25 11:30:49;;;;;;;1.77;0.60;;;10.10;1.00;;;;;;7368680;19;20017;-71
2024/02/25 11:33:42;;;;;;;1.15;0.85;;;9.90;1.00;;;;;;7368520;19;20092;-71
2024/02/25 11:36:15;;;;;;;1.27;0.60;;;9.80;1.00;;;;;;6861359;19;2004784;-71
2024/02/25 11:38:48;;;;;;;1.42;0.70;;;9.70;1.00;;;;;;7373097;19;20022;-71
2024/02/25 11:41:26;;;;;;;0.73;0.60;;;9.80;1.00;;;;;;7371186;19;20010;-70
2024/02/25 11:44:00;;;;;;;1.42;0.80;;;10.00;1.00;;;;;;7373042;19;20080;-70
2024/02/25 11:46:30;;;;;;;1.30;0.60;;;10.10;1.00;;;;;;7369675;19;20371;-70
2024/02/25 11:49:01;;;;;;;1.92;0.70;;;10.20;1.00;;;;;;7373669;19;20045;-70
2024/02/25 11:51:31;;;;;;;1.77;0.63;;;10.10;1.00;;;;;;7371933;19;20093;-70
2024/02/25 11:54:01;;;;;;;0.90;0.60;;;10.30;1.00;;;;;;7370221;19;20015;-71
2024/02/25 11:56:31;;;;;;;1.52;0.60;;;10.40;1.00;;;;;;7370714;19;20019;-71
2024/02/25 11:59:04;;;;;;;1.10;0.70;;;10.40;1.00;;;;;;7374961;19;20011;-71
2024/02/25 12:01:34;;;;;;;0.63;0.47;;;10.80;1.00;;;;;;7367348;19;20017;-72
2024/02/25 12:04:04;;;;;;;0.95;0.60;;;10.70;1.00;;;;;;7370689;19;20054;-72
2024/02/25 12:06:38;;;;;;;1.48;0.75;;;10.70;1.00;;;;;;7367245;19;20050;-71
2024/02/25 12:09:09;;;;;;;1.60;0.80;;;10.70;1.00;;;;;;7372704;19;20006;-72
2024/02/25 12:11:40;;;;;;;1.17;0.30;;;10.90;1.00;;;;;;7372483;19;20082;-73
2024/02/25 12:14:23;;;;;;;1.67;0.73;;;10.90;1.00;;;;;;7371773;19;20010;-71
2024/02/25 12:16:53;;;;;;;3.00;0.88;;;10.90;1.00;;;;;;7372176;19;20021;-72
2024/02/25 12:19:27;;;;;;;2.08;0.73;;;10.90;1.00;;;;;;7372426;19;20039;-71
2024/02/25 12:21:59;;;;;;;7.13;1.95;;;10.80;1.00;;;;;;7371703;19;20399;-72
2024/02/25 12:24:30;;;;;;;6.22;1.85;;;10.90;1.00;;;;;;7369892;19;20010;-71
2024/02/25 12:27:00;;;;;;;0.98;0.60;;;11.10;1.00;;;;;;7370044;19;20010;-72
2024/02/25 12:29:38;;;;;;;6.45;1.70;;;11.10;1.00;;;;;;7370925;19;20305;-71
2024/02/25 12:32:10;;;;;;;4.63;1.08;;;11.10;1.00;;;;;;7367322;19;20460;-72
2024/02/25 12:34:41;;;;;;;6.72;1.35;;;11.30;1.00;;;;;;7369796;19;20018;-72
2024/02/25 12:37:15;;;;;;;3.35;0.98;;;11.50;1.00;;;;;;7369659;19;20052;-72
2024/02/25 12:39:47;;;;;;;5.25;1.00;;;11.40;1.00;;;;;;7369486;19;20017;-70
2024/02/25 12:42:19;;;;;;;3.30;0.75;;;11.40;1.00;;;;;;7371291;19;20368;-70
2024/02/25 12:44:52;;;;;;;5.18;0.90;;;11.40;1.00;;;;;;7369878;19;20015;-71
2024/02/25 12:47:22;;;;;;;1.85;1.10;;;11.50;1.00;;;;;;7370169;19;20010;-71
2024/02/25 12:49:52;;;;;;;0.95;0.60;;;11.80;1.00;;;;;;7371247;19;20010;-71
2024/02/25 12:52:22;;;;;;;1.50;0.70;;;12.00;1.00;;;;;;7371040;19;20010;-71
2024/02/25 12:54:53;;;;;;;2.58;0.90;;;12.00;1.00;;;;;;7368717;19;20430;-71
2024/02/25 12:57:23;;;;;;;1.27;0.82;;;12.00;1.00;;;;;;7370518;19;20025;-71
2024/02/25 12:59:55;;;;;;;1.10;0.60;;;12.00;1.00;;;;;;7370463;19;20056;-71
2024/02/25 13:02:26;;;;;;;1.38;0.65;;;12.00;1.00;;;;;;7370776;19;20402;-72
2024/02/25 13:04:55;;;;;;;0.98;0.60;;;12.00;1.00;;;;;;7369750;19;20026;-71
2024/02/25 13:07:26;;;;;;;0.60;0.47;;;12.10;1.00;;;;;;7371250;19;20043;-73
2024/02/25 13:09:56;;;;;;;0.50;0.43;;;12.50;1.00;;;;;;7359296;19;20010;-72
2024/02/25 13:12:26;;;;;;;1.02;0.60;;;12.10;1.00;;;;;;7357796;19;20389;-71
2024/02/25 13:15:00;;;;;;;1.27;0.70;;;12.20;1.00;;;;;;7355315;19;20014;-70
2024/02/25 13:17:30;;;;;;;1.23;0.60;;;12.50;1.00;;;;;;7356834;19;20073;-72
2024/02/25 13:20:00;;;;;;;2.25;0.63;;;12.50;1.00;;;;;;7356238;19;20018;-71
2024/02/25 13:22:31;;;;;;;0.75;0.55;;;12.50;1.00;;;;;;7357787;19;20010;-71
2024/02/25 13:25:01;;;;;;;1.33;0.55;;;12.10;1.00;;;;;;7352123;19;20019;-70
2024/02/25 13:27:32;;;;;;;2.10;0.60;;;12.30;1.00;;;;;;7357555;19;20552;-70